sensor_id;sensor_type;location;lat;lon;timestamp;temperature;humidity
37412;DHT22;23278;52.110;6.050;2023-12-20T00:01:50;6.30;99.90
37412;DHT22;23278;52.110;6.050;2023-12-20T00:04:16;6.20;99.90
37412;DHT22;23278;52.110;6.050;2023-12-20T00:06:42;6.20;99.90
37412;DHT22;23278;52.110;6.050;2023-12-20T00:09:08;6.10;99.90
37412;DHT22;23278;52.110;6.050;2023-12-20T00:11:34;6.10;99.90
37412;DHT22;23278;52.110;6.050;2023-12-20T00:14:00;6.10;99.90
37412;DHT22;23278;52.110;6.050;2023-12-20T00:16:26;6.10;99.90
37412;DHT22;23278;52.110;6.050;2023-12-20T00:18:52;6.00;99.90
37412;DHT22;23278;52.110;6.050;2023-12-20T00:21:18;6.00;99.90
37412;DHT22;23278;52.110;6.050;2023-12-20T00:23:43;6.00;99.90
37412;DHT22;23278;52.110;6.050;2023-12-20T00:26:09;6.10;99.90
37412;DHT22;23278;52.110;6.050;2023-12-20T00:28:35;6.10;99.90
37412;DHT22;23278;52.110;6.050;2023-12-20T00:31:01;6.10;99.90
37412;DHT22;23278;52.110;6.050;2023-12-20T00:33:27;6.10;99.90
37412;DHT22;23278;52.110;6.050;2023-12-20T00:35:53;6.00;99.90
37412;DHT22;23278;52.110;6.050;2023-12-20T00:38:19;6.00;99.90
37412;DHT22;23278;52.110;6.050;2023-12-20T00:40:45;6.00;99.90
37412;DHT22;23278;52.110;6.050;2023-12-20T00:43:10;6.00;99.90
37412;DHT22;23278;52.110;6.050;2023-12-20T00:45:37;5.90;99.90
37412;DHT22;23278;52.110;6.050;2023-12-20T00:48:03;5.90;99.90
37412;DHT22;23278;52.110;6.050;2023-12-20T00:50:29;5.80;99.90
37412;DHT22;23278;52.110;6.050;2023-12-20T00:52:54;5.80;99.90
37412;DHT22;23278;52.110;6.050;2023-12-20T00:55:20;5.80;99.90
37412;DHT22;23278;52.110;6.050;2023-12-20T00:57:46;5.80;99.90
37412;DHT22;23278;52.110;6.050;2023-12-20T01:00:13;5.80;99.90
37412;DHT22;23278;52.110;6.050;2023-12-20T01:02:39;5.70;99.90
37412;DHT22;23278;52.110;6.050;2023-12-20T01:05:05;5.70;99.90
37412;DHT22;23278;52.110;6.050;2023-12-20T01:07:33;5.60;99.90
37412;DHT22;23278;52.110;6.050;2023-12-20T01:09:59;5.60;99.90
37412;DHT22;23278;52.110;6.050;2023-12-20T01:12:25;5.60;99.90
37412;DHT22;23278;52.110;6.050;2023-12-20T01:14:51;5.60;99.90
37412;DHT22;23278;52.110;6.050;2023-12-20T01:17:17;5.60;99.90
37412;DHT22;23278;52.110;6.050;2023-12-20T01:19:43;5.50;99.90
37412;DHT22;23278;52.110;6.050;2023-12-20T01:22:09;5.60;99.90
37412;DHT22;23278;52.110;6.050;2023-12-20T01:24:34;5.50;99.90
37412;DHT22;23278;52.110;6.050;2023-12-20T01:27:00;5.50;99.90
37412;DHT22;23278;52.110;6.050;2023-12-20T01:29:26;5.50;99.90
37412;DHT22;23278;52.110;6.050;2023-12-20T01:31:52;5.50;99.90
37412;DHT22;23278;52.110;6.050;2023-12-20T01:34:18;5.50;99.90
37412;DHT22;23278;52.110;6.050;2023-12-20T01:36:44;5.50;99.90
37412;DHT22;23278;52.110;6.050;2023-12-20T01:39:10;5.40;99.90
37412;DHT22;23278;52.110;6.050;2023-12-20T01:41:35;5.50;99.90
37412;DHT22;23278;52.110;6.050;2023-12-20T01:44:01;5.50;99.90
37412;DHT22;23278;52.110;6.050;2023-12-20T01:46:27;5.40;99.90
37412;DHT22;23278;52.110;6.050;2023-12-20T01:48:53;5.40;99.90
37412;DHT22;23278;52.110;6.050;2023-12-20T01:51:19;5.40;99.90
37412;DHT22;23278;52.110;6.050;2023-12-20T01:53:46;5.40;99.90
37412;DHT22;23278;52.110;6.050;2023-12-20T01:56:13;5.40;99.90
37412;DHT22;23278;52.110;6.050;2023-12-20T01:58:44;5.40;99.90
37412;DHT22;23278;52.110;6.050;2023-12-20T02:01:10;5.40;99.90
37412;DHT22;23278;52.110;6.050;2023-12-20T02:03:36;5.40;99.90
37412;DHT22;23278;52.110;6.050;2023-12-20T02:06:03;5.40;99.90
37412;DHT22;23278;52.110;6.050;2023-12-20T02:08:29;5.40;99.90
37412;DHT22;23278;52.110;6.050;2023-12-20T02:10:56;5.50;99.90
37412;DHT22;23278;52.110;6.050;2023-12-20T02:13:22;5.50;99.90
37412;DHT22;23278;52.110;6.050;2023-12-20T02:15:47;5.60;99.90
37412;DHT22;23278;52.110;6.050;2023-12-20T02:18:13;5.70;99.90
37412;DHT22;23278;52.110;6.050;2023-12-20T02:20:42;5.70;99.90
37412;DHT22;23278;52.110;6.050;2023-12-20T02:23:08;5.60;99.90
37412;DHT22;23278;52.110;6.050;2023-12-20T02:25:34;5.60;99.90
37412;DHT22;23278;52.110;6.050;2023-12-20T02:28:00;5.50;99.90
37412;DHT22;23278;52.110;6.050;2023-12-20T02:30:27;5.50;99.90
37412;DHT22;23278;52.110;6.050;2023-12-20T02:32:53;5.50;99.90
37412;DHT22;23278;52.110;6.050;2023-12-20T02:35:19;5.50;99.90
37412;DHT22;23278;52.110;6.050;2023-12-20T02:37:45;5.60;99.90
37412;DHT22;23278;52.110;6.050;2023-12-20T02:40:11;5.60;99.90
37412;DHT22;23278;52.110;6.050;2023-12-20T02:42:37;5.70;99.90
37412;DHT22;23278;52.110;6.050;2023-12-20T02:45:03;5.80;99.90
37412;DHT22;23278;52.110;6.050;2023-12-20T02:47:29;5.80;99.90
37412;DHT22;23278;52.110;6.050;2023-12-20T02:49:55;5.80;99.90
37412;DHT22;23278;52.110;6.050;2023-12-20T02:52:23;5.80;99.90
37412;DHT22;23278;52.110;6.050;2023-12-20T02:54:49;5.90;99.90
37412;DHT22;23278;52.110;6.050;2023-12-20T02:57:15;6.00;99.90
37412;DHT22;23278;52.110;6.050;2023-12-20T02:59:40;6.00;99.90
37412;DHT22;23278;52.110;6.050;2023-12-20T03:02:06;6.00;99.90
37412;DHT22;23278;52.110;6.050;2023-12-20T03:04:32;6.00;99.90
37412;DHT22;23278;52.110;6.050;2023-12-20T03:06:58;6.00;99.90
37412;DHT22;23278;52.110;6.050;2023-12-20T03:09:24;5.90;99.90
37412;DHT22;23278;52.110;6.050;2023-12-20T03:11:50;5.90;99.90
37412;DHT22;23278;52.110;6.050;2023-12-20T03:14:15;5.90;99.90
37412;DHT22;23278;52.110;6.050;2023-12-20T03:16:41;5.80;99.90
37412;DHT22;23278;52.110;6.050;2023-12-20T03:19:07;5.80;99.90
37412;DHT22;23278;52.110;6.050;2023-12-20T03:21:33;5.80;99.90
37412;DHT22;23278;52.110;6.050;2023-12-20T03:23:59;5.80;99.90
37412;DHT22;23278;52.110;6.050;2023-12-20T03:26:25;5.70;99.90
37412;DHT22;23278;52.110;6.050;2023-12-20T03:28:51;5.70;99.90
37412;DHT22;23278;52.110;6.050;2023-12-20T03:31:17;5.60;99.90
37412;DHT22;23278;52.110;6.050;2023-12-20T03:33:43;5.60;99.90
37412;DHT22;23278;52.110;6.050;2023-12-20T03:36:09;5.70;99.90
37412;DHT22;23278;52.110;6.050;2023-12-20T03:38:35;5.70;99.90
37412;DHT22;23278;52.110;6.050;2023-12-20T03:41:01;5.80;99.90
37412;DHT22;23278;52.110;6.050;2023-12-20T03:43:26;5.90;99.90
37412;DHT22;23278;52.110;6.050;2023-12-20T03:45:52;5.80;99.90
37412;DHT22;23278;52.110;6.050;2023-12-20T03:48:18;5.70;99.90
37412;DHT22;23278;52.110;6.050;2023-12-20T03:50:44;5.80;99.90
37412;DHT22;23278;52.110;6.050;2023-12-20T03:53:10;5.80;99.90
37412;DHT22;23278;52.110;6.050;2023-12-20T03:55:36;5.80;99.90
37412;DHT22;23278;52.110;6.050;2023-12-20T03:58:01;5.80;99.90
37412;DHT22;23278;52.110;6.050;2023-12-20T04:00:27;5.90;99.90
37412;DHT22;23278;52.110;6.050;2023-12-20T04:02:53;5.80;99.90
37412;DHT22;23278;52.110;6.050;2023-12-20T04:05:19;5.70;99.90
37412;DHT22;23278;52.110;6.050;2023-12-20T04:07:45;5.70;99.90
37412;DHT22;23278;52.110;6.050;2023-12-20T04:10:11;5.70;99.90
37412;DHT22;23278;52.110;6.050;2023-12-20T04:12:37;5.70;99.90
37412;DHT22;23278;52.110;6.050;2023-12-20T04:15:03;5.70;99.90
37412;DHT22;23278;52.110;6.050;2023-12-20T04:17:35;5.70;99.90
37412;DHT22;23278;52.110;6.050;2023-12-20T04:20:02;5.80;99.90
37412;DHT22;23278;52.110;6.050;2023-12-20T04:22:28;5.80;99.90
37412;DHT22;23278;52.110;6.050;2023-12-20T04:24:54;5.90;99.90
37412;DHT22;23278;52.110;6.050;2023-12-20T04:27:19;5.80;99.90
37412;DHT22;23278;52.110;6.050;2023-12-20T04:29:46;5.80;99.90
37412;DHT22;23278;52.110;6.050;2023-12-20T04:32:11;5.80;99.90
37412;DHT22;23278;52.110;6.050;2023-12-20T04:34:37;5.70;99.90
37412;DHT22;23278;52.110;6.050;2023-12-20T04:37:03;5.80;99.90
37412;DHT22;23278;52.110;6.050;2023-12-20T04:39:29;5.90;99.90
37412;DHT22;23278;52.110;6.050;2023-12-20T04:41:55;6.00;99.90
37412;DHT22;23278;52.110;6.050;2023-12-20T04:44:21;6.00;99.90
37412;DHT22;23278;52.110;6.050;2023-12-20T04:46:47;6.10;99.90
37412;DHT22;23278;52.110;6.050;2023-12-20T04:49:13;6.10;99.90
37412;DHT22;23278;52.110;6.050;2023-12-20T04:51:39;6.20;99.90
37412;DHT22;23278;52.110;6.050;2023-12-20T04:54:05;6.20;99.90
37412;DHT22;23278;52.110;6.050;2023-12-20T04:56:31;6.30;99.90
37412;DHT22;23278;52.110;6.050;2023-12-20T04:58:56;6.30;99.90
37412;DHT22;23278;52.110;6.050;2023-12-20T05:01:22;6.30;99.90
37412;DHT22;23278;52.110;6.050;2023-12-20T05:03:48;6.30;99.90
37412;DHT22;23278;52.110;6.050;2023-12-20T05:06:14;6.30;99.90
37412;DHT22;23278;52.110;6.050;2023-12-20T05:08:40;6.30;99.90
37412;DHT22;23278;52.110;6.050;2023-12-20T05:11:06;6.30;99.90
37412;DHT22;23278;52.110;6.050;2023-12-20T05:13:32;6.30;99.90
37412;DHT22;23278;52.110;6.050;2023-12-20T05:15:58;6.30;99.90
37412;DHT22;23278;52.110;6.050;2023-12-20T05:18:24;6.30;99.90
37412;DHT22;23278;52.110;6.050;2023-12-20T05:20:50;6.30;99.90
37412;DHT22;23278;52.110;6.050;2023-12-20T05:23:17;6.40;99.90
37412;DHT22;23278;52.110;6.050;2023-12-20T05:25:43;6.40;99.90
37412;DHT22;23278;52.110;6.050;2023-12-20T05:28:08;6.40;99.90
37412;DHT22;23278;52.110;6.050;2023-12-20T05:30:34;6.50;99.90
37412;DHT22;23278;52.110;6.050;2023-12-20T05:33:00;6.50;99.90
37412;DHT22;23278;52.110;6.050;2023-12-20T05:35:26;6.60;99.90
37412;DHT22;23278;52.110;6.050;2023-12-20T05:37:52;6.60;99.90
37412;DHT22;23278;52.110;6.050;2023-12-20T05:40:18;6.70;99.90
37412;DHT22;23278;52.110;6.050;2023-12-20T05:42:44;6.70;99.90
37412;DHT22;23278;52.110;6.050;2023-12-20T05:45:09;6.70;99.90
37412;DHT22;23278;52.110;6.050;2023-12-20T05:47:36;6.80;99.90
37412;DHT22;23278;52.110;6.050;2023-12-20T05:50:02;6.80;99.90
37412;DHT22;23278;52.110;6.050;2023-12-20T05:52:29;6.80;99.90
37412;DHT22;23278;52.110;6.050;2023-12-20T05:54:55;6.90;99.90
37412;DHT22;23278;52.110;6.050;2023-12-20T05:57:23;6.90;99.90
37412;DHT22;23278;52.110;6.050;2023-12-20T05:59:49;6.90;99.90
37412;DHT22;23278;52.110;6.050;2023-12-20T06:02:15;6.90;99.90
37412;DHT22;23278;52.110;6.050;2023-12-20T06:04:44;7.00;99.90
37412;DHT22;23278;52.110;6.050;2023-12-20T06:07:13;7.00;99.90
37412;DHT22;23278;52.110;6.050;2023-12-20T06:09:39;7.00;99.90
37412;DHT22;23278;52.110;6.050;2023-12-20T06:12:06;7.10;99.90
37412;DHT22;23278;52.110;6.050;2023-12-20T06:14:32;7.10;99.90
37412;DHT22;23278;52.110;6.050;2023-12-20T06:16:58;7.10;99.90
37412;DHT22;23278;52.110;6.050;2023-12-20T06:19:24;7.10;99.90
37412;DHT22;23278;52.110;6.050;2023-12-20T06:21:49;7.10;99.90
37412;DHT22;23278;52.110;6.050;2023-12-20T06:24:15;7.10;99.90
37412;DHT22;23278;52.110;6.050;2023-12-20T06:26:41;7.20;99.90
37412;DHT22;23278;52.110;6.050;2023-12-20T06:29:07;7.10;99.90
37412;DHT22;23278;52.110;6.050;2023-12-20T06:31:33;7.20;99.90
37412;DHT22;23278;52.110;6.050;2023-12-20T06:33:59;7.20;99.90
37412;DHT22;23278;52.110;6.050;2023-12-20T06:36:26;7.20;99.90
37412;DHT22;23278;52.110;6.050;2023-12-20T06:38:52;7.20;99.90
37412;DHT22;23278;52.110;6.050;2023-12-20T06:41:18;7.20;99.90
37412;DHT22;23278;52.110;6.050;2023-12-20T06:43:44;7.20;99.90
37412;DHT22;23278;52.110;6.050;2023-12-20T06:46:10;7.20;99.90
37412;DHT22;23278;52.110;6.050;2023-12-20T06:48:36;7.20;99.90
37412;DHT22;23278;52.110;6.050;2023-12-20T06:51:02;7.20;99.90
37412;DHT22;23278;52.110;6.050;2023-12-20T06:53:28;7.20;99.90
37412;DHT22;23278;52.110;6.050;2023-12-20T06:55:54;7.20;99.90
37412;DHT22;23278;52.110;6.050;2023-12-20T06:58:22;7.20;99.90
37412;DHT22;23278;52.110;6.050;2023-12-20T07:00:48;7.30;99.90
37412;DHT22;23278;52.110;6.050;2023-12-20T07:03:14;7.20;99.90
37412;DHT22;23278;52.110;6.050;2023-12-20T07:05:40;7.30;99.90
37412;DHT22;23278;52.110;6.050;2023-12-20T07:08:06;7.30;99.90
37412;DHT22;23278;52.110;6.050;2023-12-20T07:10:32;7.30;99.90
37412;DHT22;23278;52.110;6.050;2023-12-20T07:12:59;7.30;99.90
37412;DHT22;23278;52.110;6.050;2023-12-20T07:15:25;7.30;99.90
37412;DHT22;23278;52.110;6.050;2023-12-20T07:17:52;7.30;99.90
37412;DHT22;23278;52.110;6.050;2023-12-20T07:20:18;7.40;99.90
37412;DHT22;23278;52.110;6.050;2023-12-20T07:22:44;7.40;99.90
37412;DHT22;23278;52.110;6.050;2023-12-20T07:25:10;7.40;99.90
37412;DHT22;23278;52.110;6.050;2023-12-20T07:27:36;7.40;99.90
37412;DHT22;23278;52.110;6.050;2023-12-20T07:30:02;7.40;99.90
37412;DHT22;23278;52.110;6.050;2023-12-20T07:32:28;7.40;99.90
37412;DHT22;23278;52.110;6.050;2023-12-20T07:34:54;7.40;99.90
37412;DHT22;23278;52.110;6.050;2023-12-20T07:37:20;7.40;99.90
37412;DHT22;23278;52.110;6.050;2023-12-20T07:39:46;7.40;99.90
37412;DHT22;23278;52.110;6.050;2023-12-20T07:42:12;7.40;99.90
37412;DHT22;23278;52.110;6.050;2023-12-20T07:44:38;7.50;99.90
37412;DHT22;23278;52.110;6.050;2023-12-20T07:47:04;7.40;99.90
37412;DHT22;23278;52.110;6.050;2023-12-20T07:49:31;7.50;99.90
37412;DHT22;23278;52.110;6.050;2023-12-20T07:51:57;7.50;99.90
37412;DHT22;23278;52.110;6.050;2023-12-20T07:54:23;7.50;99.90
37412;DHT22;23278;52.110;6.050;2023-12-20T07:56:49;7.50;99.90
37412;DHT22;23278;52.110;6.050;2023-12-20T07:59:15;7.50;99.90
37412;DHT22;23278;52.110;6.050;2023-12-20T08:01:41;7.50;99.90
37412;DHT22;23278;52.110;6.050;2023-12-20T08:04:08;7.50;99.90
37412;DHT22;23278;52.110;6.050;2023-12-20T08:06:34;7.50;99.90
37412;DHT22;23278;52.110;6.050;2023-12-20T08:09:00;7.50;99.90
37412;DHT22;23278;52.110;6.050;2023-12-20T08:11:26;7.60;99.90
37412;DHT22;23278;52.110;6.050;2023-12-20T08:13:52;7.60;99.90
37412;DHT22;23278;52.110;6.050;2023-12-20T08:16:18;7.60;99.90
37412;DHT22;23278;52.110;6.050;2023-12-20T08:18:44;7.60;99.90
37412;DHT22;23278;52.110;6.050;2023-12-20T08:21:10;7.60;99.90
37412;DHT22;23278;52.110;6.050;2023-12-20T08:23:37;7.60;99.90
37412;DHT22;23278;52.110;6.050;2023-12-20T08:26:09;7.70;99.90
37412;DHT22;23278;52.110;6.050;2023-12-20T08:28:35;7.70;99.90
37412;DHT22;23278;52.110;6.050;2023-12-20T08:31:02;7.70;99.90
37412;DHT22;23278;52.110;6.050;2023-12-20T08:33:28;7.70;99.90
37412;DHT22;23278;52.110;6.050;2023-12-20T08:35:54;7.70;99.90
37412;DHT22;23278;52.110;6.050;2023-12-20T08:38:20;7.70;99.90
37412;DHT22;23278;52.110;6.050;2023-12-20T08:40:46;7.70;99.90
37412;DHT22;23278;52.110;6.050;2023-12-20T08:43:12;7.70;99.90
37412;DHT22;23278;52.110;6.050;2023-12-20T08:45:38;7.80;99.90
37412;DHT22;23278;52.110;6.050;2023-12-20T08:48:05;7.80;99.90
37412;DHT22;23278;52.110;6.050;2023-12-20T08:50:31;7.80;99.90
37412;DHT22;23278;52.110;6.050;2023-12-20T08:52:57;7.80;99.90
37412;DHT22;23278;52.110;6.050;2023-12-20T08:55:22;7.80;99.90
37412;DHT22;23278;52.110;6.050;2023-12-20T08:57:48;7.70;99.90
37412;DHT22;23278;52.110;6.050;2023-12-20T09:00:15;7.60;99.90
37412;DHT22;23278;52.110;6.050;2023-12-20T09:02:41;7.60;99.90
37412;DHT22;23278;52.110;6.050;2023-12-20T09:05:08;7.60;99.90
37412;DHT22;23278;52.110;6.050;2023-12-20T09:07:34;7.60;99.90
37412;DHT22;23278;52.110;6.050;2023-12-20T09:10:00;7.60;99.90
37412;DHT22;23278;52.110;6.050;2023-12-20T09:12:26;7.60;99.90
37412;DHT22;23278;52.110;6.050;2023-12-20T09:14:53;7.60;99.90
37412;DHT22;23278;52.110;6.050;2023-12-20T09:17:19;7.60;99.90
37412;DHT22;23278;52.110;6.050;2023-12-20T09:19:46;7.60;99.90
37412;DHT22;23278;52.110;6.050;2023-12-20T09:22:12;7.60;99.90
37412;DHT22;23278;52.110;6.050;2023-12-20T09:24:38;7.60;99.90
37412;DHT22;23278;52.110;6.050;2023-12-20T09:27:05;7.50;99.90
37412;DHT22;23278;52.110;6.050;2023-12-20T09:29:31;7.50;99.90
37412;DHT22;23278;52.110;6.050;2023-12-20T09:31:57;7.50;99.90
37412;DHT22;23278;52.110;6.050;2023-12-20T09:34:24;7.50;99.90
37412;DHT22;23278;52.110;6.050;2023-12-20T09:36:51;7.50;99.90
37412;DHT22;23278;52.110;6.050;2023-12-20T09:39:19;7.50;99.90
37412;DHT22;23278;52.110;6.050;2023-12-20T09:41:49;7.50;99.90
37412;DHT22;23278;52.110;6.050;2023-12-20T09:44:18;7.50;99.90
37412;DHT22;23278;52.110;6.050;2023-12-20T09:46:45;7.50;99.90
37412;DHT22;23278;52.110;6.050;2023-12-20T09:49:16;7.50;99.90
37412;DHT22;23278;52.110;6.050;2023-12-20T09:51:45;7.50;99.90
37412;DHT22;23278;52.110;6.050;2023-12-20T09:54:14;7.50;99.90
37412;DHT22;23278;52.110;6.050;2023-12-20T09:56:41;7.50;99.90
37412;DHT22;23278;52.110;6.050;2023-12-20T09:59:07;7.50;99.90
37412;DHT22;23278;52.110;6.050;2023-12-20T10:01:34;7.50;99.90
37412;DHT22;23278;52.110;6.050;2023-12-20T10:04:01;7.50;99.90
37412;DHT22;23278;52.110;6.050;2023-12-20T10:06:28;7.50;99.90
37412;DHT22;23278;52.110;6.050;2023-12-20T10:08:54;7.50;99.90
37412;DHT22;23278;52.110;6.050;2023-12-20T10:11:20;7.60;99.90
37412;DHT22;23278;52.110;6.050;2023-12-20T10:13:48;7.70;99.90
37412;DHT22;23278;52.110;6.050;2023-12-20T10:16:14;7.80;99.90
37412;DHT22;23278;52.110;6.050;2023-12-20T10:18:40;7.80;99.90
37412;DHT22;23278;52.110;6.050;2023-12-20T10:21:06;7.90;99.90
37412;DHT22;23278;52.110;6.050;2023-12-20T10:23:35;7.90;99.90
37412;DHT22;23278;52.110;6.050;2023-12-20T10:26:02;8.00;99.90
37412;DHT22;23278;52.110;6.050;2023-12-20T10:28:33;8.00;99.90
37412;DHT22;23278;52.110;6.050;2023-12-20T10:31:00;7.90;99.90
37412;DHT22;23278;52.110;6.050;2023-12-20T10:33:27;7.90;99.90
37412;DHT22;23278;52.110;6.050;2023-12-20T10:35:53;7.90;99.90
37412;DHT22;23278;52.110;6.050;2023-12-20T10:38:19;8.00;99.90
37412;DHT22;23278;52.110;6.050;2023-12-20T10:40:46;8.00;99.90
37412;DHT22;23278;52.110;6.050;2023-12-20T10:43:12;7.90;99.90
37412;DHT22;23278;52.110;6.050;2023-12-20T10:45:42;8.00;99.90
37412;DHT22;23278;52.110;6.050;2023-12-20T10:48:11;8.00;99.90
37412;DHT22;23278;52.110;6.050;2023-12-20T10:50:38;8.10;99.90
37412;DHT22;23278;52.110;6.050;2023-12-20T10:53:07;8.30;99.90
37412;DHT22;23278;52.110;6.050;2023-12-20T10:55:33;8.40;99.90
37412;DHT22;23278;52.110;6.050;2023-12-20T10:58:07;8.40;99.90
37412;DHT22;23278;52.110;6.050;2023-12-20T11:00:39;8.40;99.90
37412;DHT22;23278;52.110;6.050;2023-12-20T11:03:09;8.30;99.90
37412;DHT22;23278;52.110;6.050;2023-12-20T11:05:58;8.40;99.90
37412;DHT22;23278;52.110;6.050;2023-12-20T11:08:34;8.60;99.90
37412;DHT22;23278;52.110;6.050;2023-12-20T11:11:14;8.50;99.90
37412;DHT22;23278;52.110;6.050;2023-12-20T11:14:07;8.50;99.90
37412;DHT22;23278;52.110;6.050;2023-12-20T11:16:37;8.50;99.90
37412;DHT22;23278;52.110;6.050;2023-12-20T11:19:06;8.60;99.90
37412;DHT22;23278;52.110;6.050;2023-12-20T11:21:33;9.00;99.90
37412;DHT22;23278;52.110;6.050;2023-12-20T11:23:59;9.20;99.90
37412;DHT22;23278;52.110;6.050;2023-12-20T11:26:29;9.20;99.90
37412;DHT22;23278;52.110;6.050;2023-12-20T11:29:33;9.30;99.90
37412;DHT22;23278;52.110;6.050;2023-12-20T11:32:01;9.60;99.90
37412;DHT22;23278;52.110;6.050;2023-12-20T11:34:28;9.90;99.90
37412;DHT22;23278;52.110;6.050;2023-12-20T11:37:00;10.70;99.90
37412;DHT22;23278;52.110;6.050;2023-12-20T11:39:28;11.30;99.90
37412;DHT22;23278;52.110;6.050;2023-12-20T11:41:55;11.20;99.90
37412;DHT22;23278;52.110;6.050;2023-12-20T11:44:23;11.00;99.90
37412;DHT22;23278;52.110;6.050;2023-12-20T11:46:50;10.90;99.90
37412;DHT22;23278;52.110;6.050;2023-12-20T11:49:16;11.00;99.90
37412;DHT22;23278;52.110;6.050;2023-12-20T11:51:42;10.90;99.90
37412;DHT22;23278;52.110;6.050;2023-12-20T11:54:09;11.50;99.90
37412;DHT22;23278;52.110;6.050;2023-12-20T11:56:36;12.30;99.90
37412;DHT22;23278;52.110;6.050;2023-12-20T11:59:03;12.70;99.90
37412;DHT22;23278;52.110;6.050;2023-12-20T12:01:28;12.00;99.90
37412;DHT22;23278;52.110;6.050;2023-12-20T12:04:07;11.60;99.90
37412;DHT22;23278;52.110;6.050;2023-12-20T12:06:33;11.30;99.90
37412;DHT22;23278;52.110;6.050;2023-12-20T12:08:59;11.20;99.90
37412;DHT22;23278;52.110;6.050;2023-12-20T12:11:25;11.60;99.90
37412;DHT22;23278;52.110;6.050;2023-12-20T12:13:51;12.10;99.90
37412;DHT22;23278;52.110;6.050;2023-12-20T12:16:21;12.10;99.90
37412;DHT22;23278;52.110;6.050;2023-12-20T12:18:55;12.00;99.90
37412;DHT22;23278;52.110;6.050;2023-12-20T12:21:21;11.70;99.90
37412;DHT22;23278;52.110;6.050;2023-12-20T12:23:47;11.40;99.90
37412;DHT22;23278;52.110;6.050;2023-12-20T12:26:13;11.10;99.90
37412;DHT22;23278;52.110;6.050;2023-12-20T12:28:42;10.90;99.90
37412;DHT22;23278;52.110;6.050;2023-12-20T12:31:13;10.60;99.90
37412;DHT22;23278;52.110;6.050;2023-12-20T12:33:40;10.50;99.90
37412;DHT22;23278;52.110;6.050;2023-12-20T12:36:07;10.30;99.90
37412;DHT22;23278;52.110;6.050;2023-12-20T12:38:33;10.20;99.90
37412;DHT22;23278;52.110;6.050;2023-12-20T12:41:00;10.20;99.90
37412;DHT22;23278;52.110;6.050;2023-12-20T12:43:26;10.20;99.90
37412;DHT22;23278;52.110;6.050;2023-12-20T12:45:52;10.30;99.90
37412;DHT22;23278;52.110;6.050;2023-12-20T12:48:18;10.30;99.90
37412;DHT22;23278;52.110;6.050;2023-12-20T12:50:45;10.30;99.90
37412;DHT22;23278;52.110;6.050;2023-12-20T12:53:11;10.20;99.90
37412;DHT22;23278;52.110;6.050;2023-12-20T12:55:37;10.20;99.90
37412;DHT22;23278;52.110;6.050;2023-12-20T12:58:04;10.20;99.90
37412;DHT22;23278;52.110;6.050;2023-12-20T13:00:30;10.30;99.90
37412;DHT22;23278;52.110;6.050;2023-12-20T13:02:56;10.30;99.90
37412;DHT22;23278;52.110;6.050;2023-12-20T13:05:22;10.30;99.90
37412;DHT22;23278;52.110;6.050;2023-12-20T13:07:48;10.30;99.90
37412;DHT22;23278;52.110;6.050;2023-12-20T13:10:14;10.30;99.90
37412;DHT22;23278;52.110;6.050;2023-12-20T13:12:42;10.30;99.90
37412;DHT22;23278;52.110;6.050;2023-12-20T13:15:09;10.30;99.90
37412;DHT22;23278;52.110;6.050;2023-12-20T13:17:34;10.20;99.90
37412;DHT22;23278;52.110;6.050;2023-12-20T13:20:01;10.20;99.90
37412;DHT22;23278;52.110;6.050;2023-12-20T13:22:26;10.10;99.90
37412;DHT22;23278;52.110;6.050;2023-12-20T13:24:52;10.10;99.90
37412;DHT22;23278;52.110;6.050;2023-12-20T13:27:18;10.00;99.90
37412;DHT22;23278;52.110;6.050;2023-12-20T13:29:44;10.00;99.90
37412;DHT22;23278;52.110;6.050;2023-12-20T13:32:11;10.00;99.90
37412;DHT22;23278;52.110;6.050;2023-12-20T13:34:37;10.00;99.90
37412;DHT22;23278;52.110;6.050;2023-12-20T13:37:03;10.00;99.90
37412;DHT22;23278;52.110;6.050;2023-12-20T13:39:30;9.90;99.90
37412;DHT22;23278;52.110;6.050;2023-12-20T13:41:57;9.80;99.90
37412;DHT22;23278;52.110;6.050;2023-12-20T13:44:23;9.70;99.90
37412;DHT22;23278;52.110;6.050;2023-12-20T13:46:49;9.60;99.90
37412;DHT22;23278;52.110;6.050;2023-12-20T13:49:16;9.50;99.90
37412;DHT22;23278;52.110;6.050;2023-12-20T13:51:41;9.50;99.90
37412;DHT22;23278;52.110;6.050;2023-12-20T13:54:07;9.40;99.90
37412;DHT22;23278;52.110;6.050;2023-12-20T13:56:34;9.40;99.90
37412;DHT22;23278;52.110;6.050;2023-12-20T13:59:00;9.30;99.90
37412;DHT22;23278;52.110;6.050;2023-12-20T14:01:26;9.30;99.90
37412;DHT22;23278;52.110;6.050;2023-12-20T14:03:52;9.30;99.90
37412;DHT22;23278;52.110;6.050;2023-12-20T14:06:18;9.30;99.90
37412;DHT22;23278;52.110;6.050;2023-12-20T14:08:44;9.30;99.90
37412;DHT22;23278;52.110;6.050;2023-12-20T14:11:09;9.30;99.90
37412;DHT22;23278;52.110;6.050;2023-12-20T14:13:36;9.30;99.90
37412;DHT22;23278;52.110;6.050;2023-12-20T14:16:02;9.30;99.90
37412;DHT22;23278;52.110;6.050;2023-12-20T14:18:30;9.30;99.90
37412;DHT22;23278;52.110;6.050;2023-12-20T14:20:56;9.30;99.90
37412;DHT22;23278;52.110;6.050;2023-12-20T14:23:22;9.30;99.90
37412;DHT22;23278;52.110;6.050;2023-12-20T14:25:48;9.40;99.90
37412;DHT22;23278;52.110;6.050;2023-12-20T14:28:15;9.40;99.90
37412;DHT22;23278;52.110;6.050;2023-12-20T14:30:41;9.40;99.90
37412;DHT22;23278;52.110;6.050;2023-12-20T14:33:07;9.40;99.90
37412;DHT22;23278;52.110;6.050;2023-12-20T14:35:32;9.40;99.90
37412;DHT22;23278;52.110;6.050;2023-12-20T14:37:58;9.40;99.90
37412;DHT22;23278;52.110;6.050;2023-12-20T14:40:25;9.40;99.90
37412;DHT22;23278;52.110;6.050;2023-12-20T14:42:51;9.40;99.90
37412;DHT22;23278;52.110;6.050;2023-12-20T14:45:17;9.40;99.90
37412;DHT22;23278;52.110;6.050;2023-12-20T14:47:43;9.50;99.90
37412;DHT22;23278;52.110;6.050;2023-12-20T14:50:09;9.40;99.90
37412;DHT22;23278;52.110;6.050;2023-12-20T14:52:37;9.40;99.90
37412;DHT22;23278;52.110;6.050;2023-12-20T14:55:03;9.40;99.90
37412;DHT22;23278;52.110;6.050;2023-12-20T14:57:30;9.40;99.90
37412;DHT22;23278;52.110;6.050;2023-12-20T14:59:56;9.30;99.90
37412;DHT22;23278;52.110;6.050;2023-12-20T15:02:23;9.30;99.90
37412;DHT22;23278;52.110;6.050;2023-12-20T15:04:49;9.30;99.90
37412;DHT22;23278;52.110;6.050;2023-12-20T15:07:16;9.30;99.90
37412;DHT22;23278;52.110;6.050;2023-12-20T15:09:43;9.30;99.90
37412;DHT22;23278;52.110;6.050;2023-12-20T15:12:12;9.30;99.90
37412;DHT22;23278;52.110;6.050;2023-12-20T15:14:38;9.30;99.90
37412;DHT22;23278;52.110;6.050;2023-12-20T15:17:04;9.30;99.90
37412;DHT22;23278;52.110;6.050;2023-12-20T15:19:31;9.30;99.90
37412;DHT22;23278;52.110;6.050;2023-12-20T15:21:57;9.20;99.90
37412;DHT22;23278;52.110;6.050;2023-12-20T15:24:25;9.20;99.90
37412;DHT22;23278;52.110;6.050;2023-12-20T15:27:04;9.20;99.90
37412;DHT22;23278;52.110;6.050;2023-12-20T15:29:30;9.20;99.90
37412;DHT22;23278;52.110;6.050;2023-12-20T15:31:56;9.20;99.90
37412;DHT22;23278;52.110;6.050;2023-12-20T15:34:22;9.20;99.90
37412;DHT22;23278;52.110;6.050;2023-12-20T15:36:48;9.10;99.90
37412;DHT22;23278;52.110;6.050;2023-12-20T15:39:14;9.00;99.90
37412;DHT22;23278;52.110;6.050;2023-12-20T15:41:40;9.00;99.90